»·PEaware :: N72X KBFI-KSFO

N72X :: KBFI-KSFO

FLIGHT INFORMATION

Flight Status: Arrived
Operator: Privately registered:
United States
More flights under this callsign
Pilot: Joshua O. (1597)
Aircraft: Unknown
(B77L)
More flights by this aircraft type
Origin: KBFI Boeing Field/King Co Intl
United States
Destination: KSFO San Francisco Intl
United States
More flights between these airports :: More routes between these airports
Route: OLM UBG EUG RBG GOLDN6
File this flight plan on PilotEdge
Remarks: SEL / FSMR
Altitude:
(Current/Filed)
27,000ft
Speed:
(Current/Filed)
465kts
Departed: 02-Jan-15 11:55 PM
Arrived: 03-Jan-15 01:26 AM
Distance/Time
Traveled:
594nm/1:31
Distance/Time
To Go:
Arrived

Flight Plot

Page will automatically refresh every two minutes.


Map Options




Map Legend


Flown Route
Filed Route
Departure Airport
Arrival Airport
Navaid (VOR, NDB)
Fix

Horizontal Profiles

Position Reports

Time Latitude Longitude Heading Altitude Ground
Speed
02-Jan-15 23:23 47.533276 -122.301246 62 31ft 0kts
02-Jan-15 23:24 47.533276 -122.301246 62 31ft 0kts
02-Jan-15 23:25 47.533276 -122.301246 62 31ft 0kts
02-Jan-15 23:26 47.533276 -122.301246 62 31ft 0kts
02-Jan-15 23:27 47.533276 -122.301246 62 31ft 0kts
02-Jan-15 23:28 47.533276 -122.301246 62 31ft 0kts
02-Jan-15 23:29 47.533276 -122.301246 62 31ft 0kts
02-Jan-15 23:30 47.533276 -122.301246 62 31ft 0kts
02-Jan-15 23:31 47.533276 -122.301246 62 31ft 0kts
02-Jan-15 23:32 47.533276 -122.301246 62 31ft 0kts
02-Jan-15 23:33 47.533276 -122.301246 62 31ft 0kts
02-Jan-15 23:34 47.533276 -122.301246 62 31ft 0kts
02-Jan-15 23:35 47.533276 -122.301246 62 31ft 0kts
02-Jan-15 23:36 47.533276 -122.301246 62 31ft 0kts
02-Jan-15 23:37 47.533276 -122.301246 62 31ft 0kts
02-Jan-15 23:38 47.533276 -122.301246 62 31ft 0kts
02-Jan-15 23:39 47.533276 -122.301246 62 31ft 0kts
02-Jan-15 23:40 47.533276 -122.301246 62 31ft 0kts
02-Jan-15 23:41 47.533276 -122.301246 62 31ft 0kts
02-Jan-15 23:42 47.533276 -122.301246 62 31ft 0kts
02-Jan-15 23:43 47.533274 -122.301253 62 31ft 0kts
02-Jan-15 23:44 47.532747 -122.301680 332 31ft 0kts
02-Jan-15 23:45 47.532748 -122.301681 332 31ft 0kts
02-Jan-15 23:46 47.532752 -122.301684 332 31ft 0kts
02-Jan-15 23:47 47.536689 -122.305494 323 31ft 23kts
02-Jan-15 23:48 47.539923 -122.308246 331 31ft 6kts
02-Jan-15 23:49 47.541094 -122.309873 245 31ft 5kts
02-Jan-15 23:50 47.540108 -122.311270 153 31ft 11kts
02-Jan-15 23:51 47.507586 -122.284809 159 3008ft 182kts
02-Jan-15 23:52 47.459208 -122.332193 216 6723ft 243kts
02-Jan-15 23:53 47.397011 -122.400662 214 10113ft 294kts
02-Jan-15 23:54 47.324876 -122.484571 214 12664ft 370kts
02-Jan-15 23:55 47.248008 -122.575583 226 17817ft 352kts
02-Jan-15 23:56 47.165163 -122.674499 230 20000ft 411kts
02-Jan-15 23:57 47.072644 -122.783429 230 22997ft 437kts
02-Jan-15 23:58 46.968882 -122.886951 210 25953ft 487kts
02-Jan-15 23:59 46.828352 -122.911626 189 27300ft 517kts
03-Jan-15 00:00 46.687135 -122.915722 191 27290ft 487kts
03-Jan-15 00:01 46.551991 -122.922272 179 27509ft 465kts
03-Jan-15 00:02 46.427009 -122.928072 177 27117ft 445kts
03-Jan-15 00:03 46.307932 -122.933600 181 27205ft 409kts
03-Jan-15 00:04 46.194167 -122.938822 191 27305ft 422kts
03-Jan-15 00:05 46.068274 -122.944948 190 27340ft 473kts
03-Jan-15 00:06 45.946460 -122.950739 185 27262ft 409kts
03-Jan-15 00:07 45.833101 -122.956136 179 27156ft 416kts
03-Jan-15 00:08 45.714684 -122.961505 178 27138ft 427kts
03-Jan-15 00:09 45.599797 -122.966891 183 27193ft 407kts
03-Jan-15 00:10 45.485841 -122.971973 188 27242ft 421kts
03-Jan-15 00:11 45.367134 -122.977553 189 27249ft 420kts
03-Jan-15 00:12 45.253267 -122.997140 190 27202ft 409kts
03-Jan-15 00:13 45.140002 -123.020926 192 27227ft 412kts
03-Jan-15 00:14 45.024786 -123.044066 195 27265ft 432kts
03-Jan-15 00:15 44.898536 -123.069585 196 27314ft 480kts
03-Jan-15 00:16 44.764681 -123.096303 195 27321ft 490kts
03-Jan-15 00:17 44.628945 -123.123223 195 27330ft 491kts
03-Jan-15 00:18 44.493159 -123.150004 194 27343ft 493kts
03-Jan-15 00:19 44.356952 -123.176849 194 27345ft 494kts
03-Jan-15 00:20 44.220307 -123.203500 194 27347ft 495kts
03-Jan-15 00:21 44.083647 -123.229751 192 27348ft 497kts
03-Jan-15 00:22 43.945448 -123.247555 191 27346ft 497kts
03-Jan-15 00:23 43.807822 -123.266346 191 27342ft 497kts
03-Jan-15 00:24 43.670218 -123.285442 191 27335ft 498kts
03-Jan-15 00:25 43.531521 -123.304574 191 27338ft 497kts
03-Jan-15 00:26 43.394263 -123.323446 191 27343ft 496kts
03-Jan-15 00:27 43.280227 -123.338954 190 27345ft 493kts
03-Jan-15 00:28 43.119777 -123.353064 183 27346ft 498kts
03-Jan-15 00:29 42.980352 -123.348450 184 27328ft 506kts
03-Jan-15 00:30 42.863081 -123.345878 185 27316ft 513kts
03-Jan-15 00:31 42.718847 -123.342982 186 27304ft 516kts
03-Jan-15 00:32 42.573972 -123.340107 187 27292ft 523kts
03-Jan-15 00:33 42.428382 -123.337262 187 27292ft 520kts
03-Jan-15 00:34 42.283750 -123.334478 185 27300ft 516kts
03-Jan-15 00:35 42.139504 -123.331650 185 27301ft 516kts
03-Jan-15 00:36 41.996080 -123.328857 185 27302ft 514kts
03-Jan-15 00:37 41.854423 -123.326117 184 27298ft 508kts
03-Jan-15 00:38 41.712414 -123.323371 184 27291ft 508kts
03-Jan-15 00:39 41.570721 -123.320650 184 27289ft 511kts
03-Jan-15 00:40 41.428432 -123.317910 185 27289ft 514kts
03-Jan-15 00:41 41.284913 -123.315206 185 27288ft 516kts
03-Jan-15 00:42 41.140951 -123.312498 185 27289ft 517kts
03-Jan-15 00:43 40.997209 -123.309794 185 27289ft 517kts
03-Jan-15 00:44 40.853375 -123.307092 184 27285ft 514kts
03-Jan-15 00:45 40.710190 -123.304480 183 27285ft 511kts
03-Jan-15 00:46 40.567477 -123.301784 183 27286ft 512kts
03-Jan-15 00:47 40.424053 -123.299121 183 27291ft 518kts
03-Jan-15 00:48 40.283444 -123.296528 184 27306ft 503kts
03-Jan-15 00:49 40.143573 -123.293966 183 27311ft 499kts
03-Jan-15 00:50 40.008732 -123.291562 182 28086ft 440kts
03-Jan-15 00:51 39.884348 -123.289254 183 27481ft 465kts
03-Jan-15 00:52 39.763000 -123.287009 183 27323ft 443kts
03-Jan-15 00:53 39.631043 -123.284682 181 27338ft 499kts
03-Jan-15 00:54 39.490492 -123.282143 181 27338ft 504kts
03-Jan-15 00:55 39.354191 -123.279823 175 27300ft 458kts
03-Jan-15 00:56 39.230927 -123.277391 176 27283ft 426kts
03-Jan-15 00:57 39.111144 -123.275347 184 27265ft 444kts
03-Jan-15 00:58 38.992707 -123.249058 158 27266ft 433kts
03-Jan-15 00:59 38.876403 -123.199991 157 27281ft 431kts
03-Jan-15 01:00 38.761386 -123.151486 166 27288ft 440kts
03-Jan-15 01:01 38.650273 -123.104753 167 26838ft 403kts
03-Jan-15 01:02 38.538868 -123.058217 158 22872ft 440kts
03-Jan-15 01:03 38.424968 -123.010589 162 20786ft 434kts
03-Jan-15 01:04 38.310547 -122.963036 163 18648ft 430kts
03-Jan-15 01:05 38.198044 -122.916559 164 16869ft 416kts
03-Jan-15 01:06 38.091276 -122.867437 150 15223ft 392kts
03-Jan-15 01:07 38.010301 -122.793447 141 14512ft 342kts
03-Jan-15 01:08 37.934462 -122.711046 140 11855ft 363kts
03-Jan-15 01:09 37.859362 -122.630029 139 10430ft 326kts
03-Jan-15 01:10 37.791623 -122.557492 140 9318ft 313kts
03-Jan-15 01:11 37.727843 -122.489395 144 8027ft 292kts
03-Jan-15 01:12 37.670669 -122.428369 145 6888ft 241kts
03-Jan-15 01:13 37.620028 -122.371558 132 5887ft 265kts
03-Jan-15 01:14 37.583317 -122.298256 129 5362ft 235kts
03-Jan-15 01:15 37.537009 -122.242317 132 4338ft 222kts
03-Jan-15 01:16 37.497192 -122.192862 116 3329ft 178kts
03-Jan-15 01:17 37.521308 -122.173944 330 3134ft 151kts
03-Jan-15 01:18 37.552434 -122.210875 305 2197ft 151kts
03-Jan-15 01:19 37.570813 -122.255300 299 1866ft 139kts
03-Jan-15 01:20 37.588583 -122.298659 299 1075ft 139kts
03-Jan-15 01:21 37.606665 -122.340762 297 285ft 133kts
03-Jan-15 01:22 37.620170 -122.372955 297 26ft 36kts
03-Jan-15 01:23 37.623842 -122.381566 337 26ft 7kts
03-Jan-15 01:24 37.625439 -122.381582 350 26ft 2kts
03-Jan-15 01:25 37.626494 -122.381771 334 26ft 0kts
03-Jan-15 01:26 37.626494 -122.381771 334 26ft 0kts
03-Jan-15 01:27 37.626494 -122.381771 334 26ft 0kts
03-Jan-15 01:28 37.626494 -122.381771 334 26ft 0kts

Navigation Log

Ident Type
1. KBFI Airport
2. OLM Navaid
3. UBG Navaid
4. EUG Navaid
5. RBG Navaid
6. ENI Navaid
7. PYE Navaid
8. LOZIT Fix
9. DUXBY Fix
10. SFO Navaid
11. KSFO Airport